Terminal Aerodrome Forecast
Issued by NWS Jackson, MS

Home | Current Version | Previous Version | Text Only | Print | Product List | Glossary On
Versions: 1 2 3 4 5 6 7 8 9 10 11 12
705
FTUS44 KJAN 251724
TAFMEI
TAF
KMEI 251724Z 2518/2618 20006KT P6SM SKC
     FM261300 19009KT P6SM OVC100
     FM261400 18013KT P6SM OVC250
     FM261500 18015G21KT P6SM BKN250=

USA.gov is the U.S. government's official web portal to all federal, state and local government web resources and services.